Time;durP1;ratioP1;P1;durP2;ratioP2;P2;SDS_P1;SDS_P2;PMS_P1;PMS_P2;Temp;Humidity;BMP_temperature;BMP_pressure;BME280_temperature;BME280_humidity;BME280_pressure;Samples;Min_cycle;Max_cycle;Signal;HPM_P1;HPM_P2
2022/11/27 00:00:33;;;;;;;3.65;1.80;;;24.90;99.90;;;;;;5054954;28;20196;-82
2022/11/27 00:03:04;;;;;;;6.97;2.30;;;25.00;99.90;;;;;;5071390;28;20203;-82
2022/11/27 00:05:35;;;;;;;5.68;2.40;;;25.10;99.90;;;;;;5066950;28;20337;-83
2022/11/27 00:08:08;;;;;;;5.78;2.20;;;25.20;99.90;;;;;;5072545;28;20193;-82
2022/11/27 00:10:39;;;;;;;6.07;2.47;;;25.20;99.90;;;;;;5068547;28;20216;-82
2022/11/27 00:13:10;;;;;;;4.85;2.20;;;25.20;99.90;;;;;;5069670;28;20192;-82
2022/11/27 00:15:41;;;;;;;7.28;2.13;;;25.30;99.90;;;;;;5070842;28;20195;-82
2022/11/27 00:18:12;;;;;;;7.03;3.10;;;25.40;99.90;;;;;;5066066;28;20196;-82
2022/11/27 00:20:43;;;;;;;7.05;2.10;;;25.40;99.90;;;;;;5070666;28;20626;-83
2022/11/27 00:23:17;;;;;;;4.80;1.90;;;25.50;99.90;;;;;;5069557;28;20203;-82
2022/11/27 00:25:53;;;;;;;5.00;2.20;;;25.60;99.90;;;;;;5072025;28;20698;-82
2022/11/27 00:28:24;;;;;;;7.90;2.35;;;25.60;99.90;;;;;;5070778;28;20214;-82
2022/11/27 00:30:54;;;;;;;5.90;2.47;;;25.60;99.90;;;;;;5070837;28;20593;-79
2022/11/27 00:33:25;;;;;;;7.25;2.50;;;25.70;99.90;;;;;;5066147;28;20708;-80
2022/11/27 00:35:57;;;;;;;4.88;2.05;;;25.70;99.90;;;;;;5062811;28;20275;-81
2022/11/27 00:38:30;;;;;;;6.93;2.20;;;25.80;99.90;;;;;;5070695;28;20192;-81
2022/11/27 00:41:07;;;;;;;4.35;1.90;;;25.80;99.90;;;;;;5065672;28;20192;-80
2022/11/27 00:43:39;;;;;;;7.97;2.50;;;25.80;99.90;;;;;;5060770;28;20212;-80
2022/11/27 00:46:09;;;;;;;6.47;2.40;;;25.80;99.90;;;;;;5067927;28;20196;-81
2022/11/27 00:48:40;;;;;;;4.13;2.00;;;25.80;99.90;;;;;;5070531;28;20287;-81
2022/11/27 00:51:13;;;;;;;6.10;2.33;;;25.80;99.90;;;;;;5070461;28;20220;-81
2022/11/27 00:53:46;;;;;;;4.07;1.92;;;25.70;99.90;;;;;;5071218;28;20206;-81
2022/11/27 00:56:19;;;;;;;6.40;2.63;;;25.70;99.90;;;;;;5057095;28;20234;-81
2022/11/27 00:58:50;;;;;;;9.80;3.13;;;25.70;99.90;;;;;;5050150;28;20612;-81
2022/11/27 01:01:23;;;;;;;14.32;3.60;;;25.80;99.90;;;;;;5048848;28;20197;-82
2022/11/27 01:03:54;;;;;;;11.68;3.15;;;25.90;99.90;;;;;;5061835;28;20690;-82
2022/11/27 01:06:25;;;;;;;13.40;3.47;;;25.90;99.90;;;;;;5069756;28;20180;-82
2022/11/27 01:08:58;;;;;;;6.53;2.88;;;26.20;99.90;;;;;;5069643;28;20668;-82
2022/11/27 01:11:31;;;;;;;10.60;3.55;;;26.30;99.90;;;;;;5069685;28;20233;-81
2022/11/27 01:14:04;;;;;;;12.60;3.83;;;26.60;99.90;;;;;;5069966;28;20302;-82
2022/11/27 01:16:36;;;;;;;9.95;3.33;;;26.80;99.90;;;;;;5072454;28;20196;-82
2022/11/27 01:19:08;;;;;;;7.07;2.88;;;27.00;99.90;;;;;;5075358;28;20559;-82
2022/11/27 01:21:39;;;;;;;8.77;2.90;;;27.00;99.90;;;;;;5075192;28;20200;-81
2022/11/27 01:24:13;;;;;;;11.05;3.30;;;27.10;99.90;;;;;;5075346;28;20200;-82
2022/11/27 01:26:44;;;;;;;5.97;2.70;;;27.00;99.90;;;;;;5075139;28;20677;-82
2022/11/27 01:29:15;;;;;;;8.82;2.78;;;27.00;99.90;;;;;;5064544;28;20200;-82
2022/11/27 01:31:46;;;;;;;8.40;2.70;;;26.90;99.90;;;;;;5062633;28;20727;-82
2022/11/27 01:34:18;;;;;;;8.13;2.85;;;26.60;99.90;;;;;;5073693;28;20194;-82
2022/11/27 01:36:49;;;;;;;5.93;2.75;;;26.50;99.90;;;;;;5071833;28;20276;-82
2022/11/27 01:39:22;;;;;;;7.60;2.55;;;26.50;99.90;;;;;;5068182;28;20604;-81
2022/11/27 01:41:53;;;;;;;9.00;3.28;;;26.50;99.90;;;;;;5055166;28;20197;-82
2022/11/27 01:44:48;;;;;;;6.90;2.70;;;26.70;99.90;;;;;;5051098;28;20198;-81
2022/11/27 01:47:28;;;;;;;6.88;2.53;;;26.90;99.90;;;;;;5068282;28;20196;-82
2022/11/27 01:50:07;;;;;;;8.45;2.75;;;26.90;99.90;;;;;;5070960;28;20207;-82
2022/11/27 01:52:41;;;;;;;6.35;2.45;;;27.20;99.90;;;;;;5071895;28;20224;-81
2022/11/27 01:55:19;;;;;;;7.97;2.47;;;27.30;99.90;;;;;;5070534;28;20634;-82
2022/11/27 01:57:52;;;;;;;8.57;3.00;;;27.50;99.90;;;;;;5070836;28;20195;-82
2022/11/27 02:00:24;;;;;;;5.55;2.90;;;27.60;99.90;;;;;;5071189;28;20188;-81
2022/11/27 02:02:55;;;;;;;9.57;3.30;;;27.60;99.90;;;;;;5062078;28;20208;-80
2022/11/27 02:05:29;;;;;;;10.40;3.60;;;27.80;99.90;;;;;;5050367;28;20578;-81
2022/11/27 02:08:01;;;;;;;17.20;3.53;;;28.00;99.90;;;;;;5082730;28;20199;-81
2022/11/27 02:10:44;;;;;;;12.18;3.40;;;28.10;99.90;;;;;;5090906;28;20203;-81
2022/11/27 02:13:20;;;;;;;10.35;3.08;;;28.20;99.90;;;;;;5072085;28;20196;-81
2022/11/27 02:15:56;;;;;;;7.75;2.83;;;28.20;99.90;;;;;;5070300;28;20206;-81
2022/11/27 02:18:34;;;;;;;7.50;2.97;;;28.00;99.90;;;;;;5070173;28;20199;-81
2022/11/27 02:21:12;;;;;;;8.75;3.03;;;27.90;99.90;;;;;;5053637;28;20215;-82
2022/11/27 02:24:16;;;;;;;10.63;3.15;;;27.80;99.90;;;;;;5059850;28;20654;-80
2022/11/27 02:27:17;;;;;;;7.28;3.10;;;28.00;99.90;;;;;;5060631;28;20201;-81
2022/11/27 02:29:55;;;;;;;7.30;2.95;;;28.40;99.90;;;;;;5069746;28;20198;-81
2022/11/27 02:32:30;;;;;;;10.40;2.80;;;28.50;99.90;;;;;;5071392;28;20220;-82
2022/11/27 02:35:06;;;;;;;7.30;2.92;;;28.50;99.90;;;;;;5072984;28;20200;-82
2022/11/27 02:37:43;;;;;;;8.13;2.80;;;28.20;99.90;;;;;;5057338;28;20279;-81
2022/11/27 02:40:18;;;;;;;10.77;3.20;;;27.80;99.90;;;;;;5072909;28;20180;-82
2022/11/27 02:42:51;;;;;;;7.15;3.05;;;27.40;99.90;;;;;;5059127;28;20200;-80
2022/11/27 02:45:29;;;;;;;8.60;3.10;;;27.30;99.90;;;;;;5069038;28;20203;-82
2022/11/27 02:48:01;;;;;;;5.30;2.58;;;27.30;99.90;;;;;;5062491;28;20284;-81
2022/11/27 02:50:33;;;;;;;9.95;3.00;;;27.30;99.90;;;;;;5061368;28;20275;-80
2022/11/27 02:53:08;;;;;;;13.15;3.22;;;27.30;99.90;;;;;;5069259;28;20224;-81
2022/11/27 02:55:41;;;;;;;16.33;3.10;;;27.20;99.90;;;;;;5050267;28;20232;-81
2022/11/27 02:58:18;;;;;;;5.13;2.53;;;27.20;99.90;;;;;;5050107;28;20203;-80
2022/11/27 03:00:51;;;;;;;10.50;3.58;;;27.00;99.90;;;;;;5050026;28;20185;-80
2022/11/27 03:03:26;;;;;;;7.85;3.15;;;26.80;99.90;;;;;;5049924;28;20218;-79
2022/11/27 03:06:02;;;;;;;8.25;3.30;;;26.70;99.90;;;;;;5063543;28;20196;-80
2022/11/27 03:08:39;;;;;;;7.25;3.03;;;26.70;99.90;;;;;;5068895;28;20210;-80
2022/11/27 03:11:12;;;;;;;7.28;3.05;;;26.60;99.90;;;;;;5049469;28;20231;-80
2022/11/27 03:13:45;;;;;;;7.50;2.95;;;26.50;99.90;;;;;;5051278;28;20195;-80
2022/11/27 03:16:24;;;;;;;12.23;3.45;;;26.30;99.90;;;;;;5054553;28;20655;-80
2022/11/27 03:19:02;;;;;;;11.45;3.15;;;26.30;99.90;;;;;;5052082;28;20278;-81
2022/11/27 03:21:38;;;;;;;7.32;3.22;;;26.30;99.90;;;;;;5053194;28;20230;-80
2022/11/27 03:24:10;;;;;;;8.63;3.00;;;26.20;99.90;;;;;;5053596;28;20287;-79
2022/11/27 03:26:42;;;;;;;7.63;3.30;;;26.20;99.90;;;;;;5053281;28;20751;-80
2022/11/27 03:29:16;;;;;;;8.20;3.05;;;26.10;99.90;;;;;;5070913;28;20212;-80
2022/11/27 03:31:49;;;;;;;9.27;3.03;;;26.30;99.90;;;;;;5063955;28;20237;-80
2022/11/27 03:34:21;;;;;;;11.93;3.53;;;26.90;99.90;;;;;;5053256;28;20197;-80
2022/11/27 03:36:51;;;;;;;8.55;3.03;;;27.30;99.90;;;;;;5077002;28;20197;-80
2022/11/27 03:39:24;;;;;;;7.30;3.30;;;27.40;99.90;;;;;;5094718;28;20204;-80
2022/11/27 03:42:03;;;;;;;9.80;3.35;;;27.70;99.90;;;;;;5108022;28;20183;-80
2022/11/27 03:44:44;;;;;;;11.57;3.25;;;27.70;99.90;;;;;;5054316;28;20205;-80
2022/11/27 03:47:27;;;;;;;9.57;3.38;;;27.70;99.90;;;;;;5053021;28;20211;-81
2022/11/27 03:50:11;;;;;;;8.27;3.50;;;28.00;99.90;;;;;;5073225;28;20200;-80
2022/11/27 03:52:52;;;;;;;8.65;3.50;;;27.90;99.90;;;;;;5073295;28;20239;-80
2022/11/27 03:55:33;;;;;;;10.38;3.42;;;27.70;99.90;;;;;;5073074;28;20231;-80
2022/11/27 03:58:09;;;;;;;11.68;3.90;;;27.90;99.90;;;;;;5072797;28;20203;-80
2022/11/27 04:00:42;;;;;;;8.45;3.05;;;28.10;99.90;;;;;;5067162;28;20322;-80
2022/11/27 04:03:16;;;;;;;11.40;2.95;;;28.20;99.90;;;;;;5054354;28;20204;-80
2022/11/27 04:05:47;;;;;;;5.95;2.78;;;28.50;99.90;;;;;;5062389;28;20200;-80
2022/11/27 04:08:18;;;;;;;9.32;3.40;;;28.90;99.90;;;;;;5072546;28;20203;-80
2022/11/27 04:10:50;;;;;;;12.85;3.28;;;29.10;99.90;;;;;;5052264;28;20219;-80
2022/11/27 04:13:21;;;;;;;11.35;3.50;;;29.50;99.90;;;;;;5053561;28;20228;-79
2022/11/27 04:15:51;;;;;;;11.07;3.10;;;29.70;99.90;;;;;;5071642;28;20574;-79
2022/11/27 04:18:24;;;;;;;6.82;3.20;;;29.70;99.90;;;;;;5071437;28;20287;-79
2022/11/27 04:20:55;;;;;;;8.63;3.00;;;29.90;99.90;;;;;;5072153;28;20596;-79
2022/11/27 04:23:26;;;;;;;7.88;2.90;;;29.60;99.90;;;;;;5073392;28;20208;-78
2022/11/27 04:25:57;;;;;;;8.95;3.45;;;29.40;99.90;;;;;;5074781;28;20196;-79
2022/11/27 04:28:27;;;;;;;8.73;3.10;;;29.70;99.90;;;;;;5072304;28;20203;-79
2022/11/27 04:30:58;;;;;;;8.75;3.22;;;30.00;99.90;;;;;;5070330;28;20590;-78
2022/11/27 04:33:31;;;;;;;6.70;2.95;;;30.00;99.90;;;;;;5071467;28;20258;-78
2022/11/27 04:36:02;;;;;;;6.00;2.78;;;30.30;99.90;;;;;;5070806;28;20253;-79
2022/11/27 04:38:33;;;;;;;8.05;2.90;;;30.10;99.90;;;;;;5091683;28;20195;-78
2022/11/27 04:41:03;;;;;;;6.43;2.75;;;29.90;99.90;;;;;;5077954;28;20199;-78
2022/11/27 04:43:34;;;;;;;10.00;3.30;;;29.30;99.90;;;;;;5071838;28;20195;-79
2022/11/27 04:46:05;;;;;;;7.38;2.50;;;28.80;99.90;;;;;;5082689;28;20362;-77
2022/11/27 04:48:38;;;;;;;9.73;3.03;;;28.40;99.90;;;;;;5072029;28;20192;-78
2022/11/27 04:51:08;;;;;;;5.05;2.60;;;28.30;99.90;;;;;;5071761;28;20196;-78
2022/11/27 04:53:39;;;;;;;7.60;3.00;;;28.00;99.90;;;;;;5058035;28;20715;-79
2022/11/27 04:56:10;;;;;;;7.90;3.22;;;27.90;99.90;;;;;;5051328;28;20242;-79
2022/11/27 04:58:41;;;;;;;11.18;3.20;;;27.90;99.90;;;;;;5051022;28;20211;-80
2022/11/27 05:01:12;;;;;;;6.45;3.30;;;27.90;99.90;;;;;;5060247;28;20192;-79
2022/11/27 05:03:45;;;;;;;8.65;3.10;;;27.80;99.90;;;;;;5071353;28;20200;-79
2022/11/27 05:06:15;;;;;;;7.22;3.03;;;27.80;99.90;;;;;;5071312;28;20196;-79
2022/11/27 05:08:46;;;;;;;8.90;3.33;;;27.80;99.90;;;;;;5074348;28;20698;-80
2022/11/27 05:11:18;;;;;;;6.72;2.88;;;27.70;99.90;;;;;;5073506;28;20396;-80
2022/11/27 05:14:13;;;;;;;9.32;3.50;;;27.70;99.90;;;;;;5073689;28;20306;-79
2022/11/27 05:16:41;;;;;;;7.18;3.35;;;27.60;99.90;;;;;;5072932;28;20207;-80
2022/11/27 05:19:15;;;;;;;10.05;2.88;;;27.50;99.90;;;;;;5073330;28;20204;-79
2022/11/27 05:21:47;;;;;;;7.72;3.45;;;27.50;99.90;;;;;;5073159;28;20285;-79
2022/11/27 05:24:19;;;;;;;11.68;3.10;;;27.30;99.90;;;;;;5073296;28;20195;-79
2022/11/27 05:26:50;;;;;;;8.27;3.50;;;27.10;99.90;;;;;;5073607;28;20210;-81
2022/11/27 05:29:22;;;;;;;8.00;3.28;;;27.30;99.90;;;;;;5072201;28;20199;-79
2022/11/27 05:31:53;;;;;;;7.95;3.40;;;27.40;99.90;;;;;;5057925;28;20295;-80
2022/11/27 05:34:25;;;;;;;9.25;3.15;;;27.80;99.90;;;;;;5060815;28;20196;-80
2022/11/27 05:36:56;;;;;;;11.57;3.47;;;28.10;99.90;;;;;;5073795;28;20677;-79
2022/11/27 05:39:27;;;;;;;12.75;3.83;;;28.30;99.90;;;;;;5074173;28;20681;-79
2022/11/27 05:41:58;;;;;;;8.80;2.90;;;29.10;99.90;;;;;;5072662;28;20295;-78
2022/11/27 05:44:29;;;;;;;7.93;3.25;;;29.80;99.90;;;;;;5053012;28;20574;-77
2022/11/27 05:47:00;;;;;;;10.02;3.33;;;30.40;99.90;;;;;;5051915;28;20664;-79
2022/11/27 05:49:33;;;;;;;8.05;3.08;;;31.00;99.90;;;;;;5056638;28;20203;-78
2022/11/27 05:52:03;;;;;;;10.27;3.10;;;31.30;99.90;;;;;;5058256;28;20216;-80
2022/11/27 05:54:34;;;;;;;6.63;2.70;;;31.60;99.90;;;;;;5054157;28;20231;-79
2022/11/27 05:57:05;;;;;;;13.10;3.50;;;31.50;99.90;;;;;;5054743;28;20283;-80
2022/11/27 05:59:36;;;;;;;6.50;2.75;;;30.90;99.90;;;;;;5054740;28;20208;-80
2022/11/27 06:02:07;;;;;;;11.18;3.00;;;30.50;99.90;;;;;;5063524;28;20200;-78
2022/11/27 06:04:40;;;;;;;9.77;3.35;;;29.80;99.90;;;;;;5054582;28;20204;-79
2022/11/27 06:07:11;;;;;;;8.38;2.60;;;29.50;99.90;;;;;;5054404;28;20288;-79
2022/11/27 06:09:42;;;;;;;9.55;3.30;;;29.30;99.90;;;;;;5068033;28;20282;-78
2022/11/27 06:12:12;;;;;;;7.03;3.30;;;29.00;99.90;;;;;;5053761;28;20230;-78
2022/11/27 06:14:43;;;;;;;8.07;3.10;;;28.70;99.90;;;;;;5061883;28;20628;-78
2022/11/27 06:17:15;;;;;;;9.65;2.83;;;28.40;99.90;;;;;;5070323;28;20197;-79
2022/11/27 06:19:48;;;;;;;9.55;2.50;;;28.10;99.90;;;;;;5054142;28;20575;-78
2022/11/27 06:22:18;;;;;;;9.07;3.28;;;27.90;99.90;;;;;;5053425;28;20189;-78
2022/11/27 06:24:49;;;;;;;16.65;4.35;;;27.40;99.90;;;;;;5053781;28;20207;-78
2022/11/27 06:27:20;;;;;;;10.55;3.60;;;27.20;99.90;;;;;;5053341;28;20200;-78
2022/11/27 06:29:51;;;;;;;6.55;2.22;;;27.50;99.90;;;;;;5066349;28;20192;-78
2022/11/27 06:32:22;;;;;;;7.70;2.00;;;27.80;99.90;;;;;;5052746;28;20224;-79
2022/11/27 06:34:55;;;;;;;23.17;8.35;;;28.10;99.90;;;;;;5056535;28;20288;-79
2022/11/27 06:37:26;;;;;;;23.90;9.15;;;28.30;99.90;;;;;;5053299;28;20193;-79
2022/11/27 06:39:56;;;;;;;12.63;3.00;;;28.80;99.90;;;;;;5052810;28;20242;-79
2022/11/27 06:42:29;;;;;;;11.18;2.85;;;29.50;99.90;;;;;;5059650;28;20196;-78
2022/11/27 06:45:00;;;;;;;8.48;2.85;;;29.90;99.90;;;;;;5073092;28;20654;-79
2022/11/27 06:47:31;;;;;;;9.00;2.58;;;30.40;99.90;;;;;;5071824;28;20200;-78
2022/11/27 06:50:04;;;;;;;6.90;2.20;;;30.90;99.90;;;;;;5072339;28;20217;-78
2022/11/27 06:52:34;;;;;;;8.00;1.80;;;31.50;99.90;;;;;;5069317;28;20219;-79
2022/11/27 06:55:05;;;;;;;6.88;2.00;;;31.80;99.90;;;;;;5075213;28;20323;-78
2022/11/27 06:57:36;;;;;;;5.47;2.00;;;31.90;99.90;;;;;;5037209;28;20660;-78
2022/11/27 07:00:08;;;;;;;7.47;2.05;;;31.40;99.90;;;;;;5035734;28;20205;-79
2022/11/27 07:02:39;;;;;;;3.78;1.77;;;30.70;99.90;;;;;;5034222;28;20203;-78
2022/11/27 07:05:12;;;;;;;6.20;1.58;;;30.20;99.90;;;;;;5033452;28;20208;-79
2022/11/27 07:07:43;;;;;;;7.30;1.70;;;29.70;99.90;;;;;;5043490;28;20655;-80
2022/11/27 07:10:14;;;;;;;7.22;2.03;;;29.30;99.90;;;;;;5039015;28;21042;-80
2022/11/27 07:12:44;;;;;;;6.75;2.20;;;28.80;99.90;;;;;;5053574;28;20227;-80
2022/11/27 07:15:15;;;;;;;6.47;2.10;;;28.50;99.90;;;;;;5053606;28;20197;-80
2022/11/27 07:17:46;;;;;;;6.38;2.10;;;28.20;99.90;;;;;;5054857;28;20672;-80
2022/11/27 07:20:20;;;;;;;6.82;2.05;;;27.90;99.90;;;;;;5053677;28;20659;-79
2022/11/27 07:22:50;;;;;;;8.25;2.25;;;27.60;99.90;;;;;;5053307;28;20675;-79
2022/11/27 07:25:21;;;;;;;8.57;2.35;;;27.30;99.90;;;;;;5050568;28;20211;-78
2022/11/27 07:27:52;;;;;;;5.20;2.30;;;27.10;99.90;;;;;;5046867;28;20654;-80
2022/11/27 07:30:23;;;;;;;5.65;2.30;;;26.90;99.90;;;;;;5053029;28;20601;-79
2022/11/27 07:32:54;;;;;;;8.18;2.30;;;26.80;99.90;;;;;;5053671;28;20252;-79
2022/11/27 07:35:26;;;;;;;8.18;2.72;;;26.60;99.90;;;;;;5053507;28;20192;-80
2022/11/27 07:37:57;;;;;;;5.45;2.42;;;26.40;99.90;;;;;;5054035;28;20279;-80
2022/11/27 07:40:28;;;;;;;9.98;3.53;;;26.20;99.90;;;;;;5056411;28;20207;-80
2022/11/27 07:43:00;;;;;;;6.85;3.70;;;26.10;99.90;;;;;;5047710;28;20660;-79
2022/11/27 07:45:31;;;;;;;9.73;3.72;;;25.90;99.90;;;;;;5044108;28;20193;-80
2022/11/27 07:48:02;;;;;;;13.05;3.80;;;25.90;99.90;;;;;;5056720;28;20563;-80
2022/11/27 07:50:35;;;;;;;8.45;3.17;;;25.80;99.90;;;;;;5056500;28;20201;-80
2022/11/27 07:53:06;;;;;;;7.55;2.85;;;25.80;99.90;;;;;;5056141;28;20246;-79
2022/11/27 07:55:39;;;;;;;7.15;2.85;;;25.60;99.90;;;;;;5070885;28;20739;-79
2022/11/27 07:58:10;;;;;;;6.78;3.10;;;25.60;99.90;;;;;;5084749;28;20229;-79
2022/11/27 08:00:41;;;;;;;7.20;3.03;;;25.50;99.90;;;;;;5063125;28;20193;-80
2022/11/27 08:03:12;;;;;;;6.35;2.88;;;25.50;99.90;;;;;;5055838;28;20201;-79
2022/11/27 08:05:45;;;;;;;9.35;2.92;;;25.40;99.90;;;;;;5074372;28;20203;-80
2022/11/27 08:08:15;;;;;;;8.48;2.58;;;25.30;99.90;;;;;;5075454;28;20196;-79
2022/11/27 08:10:46;;;;;;;7.32;2.58;;;25.30;99.90;;;;;;5074203;28;20204;-79
2022/11/27 08:13:17;;;;;;;7.90;2.90;;;25.30;99.90;;;;;;5073215;28;20309;-79
2022/11/27 08:15:48;;;;;;;7.40;3.00;;;25.30;99.90;;;;;;5073808;28;20196;-80
2022/11/27 08:18:18;;;;;;;6.47;2.60;;;25.20;99.90;;;;;;5054361;28;20205;-79
2022/11/27 08:20:51;;;;;;;14.82;8.15;;;25.20;99.90;;;;;;5060230;28;20200;-78
2022/11/27 08:23:22;;;;;;;11.20;4.72;;;25.20;99.90;;;;;;5064561;28;20196;-79
2022/11/27 08:25:53;;;;;;;17.50;6.47;;;25.10;99.90;;;;;;5066714;28;20230;-80
2022/11/27 08:28:23;;;;;;;22.73;10.20;;;25.00;99.90;;;;;;5070170;28;20282;-81
2022/11/27 08:31:00;;;;;;;6.03;2.90;;;24.90;99.90;;;;;;5051406;28;20197;-80
2022/11/27 08:33:33;;;;;;;7.63;2.80;;;24.90;99.90;;;;;;5050645;28;20242;-79
2022/11/27 08:36:06;;;;;;;2.80;1.65;;;24.80;99.90;;;;;;5060499;28;20659;-81
2022/11/27 08:38:37;;;;;;;5.70;1.50;;;24.80;99.90;;;;;;5072522;28;20684;-81
2022/11/27 08:41:09;;;;;;;6.00;2.10;;;24.80;99.90;;;;;;5051675;28;20224;-81
2022/11/27 08:43:40;;;;;;;8.65;1.95;;;24.70;99.90;;;;;;5053148;28;20207;-80
2022/11/27 08:46:11;;;;;;;32.08;11.07;;;24.60;99.90;;;;;;5059819;28;20199;-80
2022/11/27 08:48:42;;;;;;;10.75;4.07;;;24.40;99.90;;;;;;5051973;28;20218;-80
2022/11/27 08:51:17;;;;;;;11.20;3.50;;;23.80;99.90;;;;;;5071330;28;20265;-80
2022/11/27 08:53:48;;;;;;;7.57;2.53;;;23.40;99.90;;;;;;5075522;28;20701;-80
2022/11/27 08:56:22;;;;;;;5.57;2.30;;;23.30;99.90;;;;;;5082813;28;20216;-80
2022/11/27 08:58:55;;;;;;;3.65;1.50;;;23.10;99.90;;;;;;5070794;28;20260;-79
2022/11/27 09:01:27;;;;;;;3.42;1.40;;;23.10;99.90;;;;;;5072085;28;20244;-78
2022/11/27 09:03:59;;;;;;;5.90;1.75;;;23.20;99.90;;;;;;5067841;28;20288;-79
2022/11/27 09:06:33;;;;;;;3.72;1.38;;;23.30;99.90;;;;;;5062321;28;20203;-80
2022/11/27 09:09:06;;;;;;;4.93;1.50;;;23.30;99.90;;;;;;5060043;28;20202;-79
2022/11/27 09:11:37;;;;;;;3.95;1.27;;;23.30;99.90;;;;;;5058131;28;20284;-80
2022/11/27 09:14:08;;;;;;;2.90;1.48;;;23.20;99.90;;;;;;5061158;28;20575;-80
2022/11/27 09:16:39;;;;;;;5.85;1.60;;;23.20;99.90;;;;;;5081063;28;20192;-81
2022/11/27 09:19:10;;;;;;;4.25;1.40;;;23.20;99.90;;;;;;5081122;28;20195;-80
2022/11/27 09:21:43;;;;;;;1.80;1.30;;;23.20;99.90;;;;;;5079568;28;20268;-81
2022/11/27 09:24:14;;;;;;;2.47;1.30;;;23.00;99.90;;;;;;5078217;28;20206;-81
2022/11/27 09:26:45;;;;;;;4.47;1.50;;;23.00;99.90;;;;;;5077826;28;20275;-81
2022/11/27 09:29:16;;;;;;;3.17;1.70;;;23.00;99.90;;;;;;5079869;28;20200;-80
2022/11/27 09:31:47;;;;;;;3.00;1.40;;;22.90;99.90;;;;;;5077399;28;20669;-79
2022/11/27 09:34:18;;;;;;;3.40;1.40;;;23.00;99.90;;;;;;5081427;28;20231;-80
2022/11/27 09:36:50;;;;;;;4.10;1.38;;;23.00;99.90;;;;;;5079693;28;20235;-80
2022/11/27 09:39:25;;;;;;;5.50;1.60;;;23.00;99.90;;;;;;5079330;28;20192;-79
2022/11/27 09:42:00;;;;;;;3.72;1.40;;;23.00;99.90;;;;;;5074254;28;20223;-80
2022/11/27 09:44:45;;;;;;;3.92;1.48;;;23.00;99.90;;;;;;5058748;28;20196;-79
2022/11/27 09:47:29;;;;;;;3.25;1.73;;;22.80;99.90;;;;;;5074145;28;20188;-79
2022/11/27 09:50:03;;;;;;;4.05;1.65;;;22.80;99.90;;;;;;5080329;28;20523;-79
2022/11/27 09:52:43;;;;;;;4.00;1.60;;;22.90;99.90;;;;;;5078137;28;20203;-79
2022/11/27 09:55:34;;;;;;;3.78;1.30;;;22.90;99.90;;;;;;5068234;28;20244;-79
2022/11/27 09:58:10;;;;;;;3.10;1.30;;;22.90;99.90;;;;;;5064955;28;20209;-80
2022/11/27 10:00:40;;;;;;;2.08;1.30;;;22.90;99.90;;;;;;5063253;28;20192;-80
2022/11/27 10:03:16;;;;;;;2.28;1.15;;;22.90;99.90;;;;;;5058232;28;20189;-80
2022/11/27 10:05:57;;;;;;;8.95;1.52;;;22.80;99.90;;;;;;5064988;28;20180;-80
2022/11/27 10:08:38;;;;;;;3.33;1.58;;;22.90;99.90;;;;;;5071160;28;20223;-79
2022/11/27 10:11:18;;;;;;;2.00;1.55;;;22.90;99.90;;;;;;5059322;28;20620;-79
2022/11/27 10:14:06;;;;;;;3.30;1.90;;;22.80;99.90;;;;;;5061268;28;20253;-77
2022/11/27 10:16:44;;;;;;;2.40;1.50;;;22.80;99.90;;;;;;5073510;28;20714;-78
2022/11/27 10:19:31;;;;;;;4.60;1.85;;;22.70;99.90;;;;;;5079579;28;20188;-77
2022/11/27 10:22:07;;;;;;;2.67;1.70;;;22.70;99.90;;;;;;5073503;28;20206;-79
2022/11/27 10:24:46;;;;;;;2.67;1.90;;;22.70;99.90;;;;;;5058532;28;20196;-79
2022/11/27 10:27:23;;;;;;;4.90;2.00;;;22.60;99.90;;;;;;5059272;28;20196;-80
2022/11/27 10:29:56;;;;;;;4.55;2.40;;;22.60;99.90;;;;;;5063332;28;20192;-80
2022/11/27 10:32:29;;;;;;;2.00;1.20;;;22.40;99.90;;;;;;5078761;28;20231;-79
2022/11/27 10:35:04;;;;;;;2.97;1.70;;;22.30;99.90;;;;;;5062409;28;20601;-79
2022/11/27 10:37:41;;;;;;;2.85;1.25;;;22.30;99.90;;;;;;5067595;28;20200;-79
2022/11/27 10:40:22;;;;;;;3.33;1.10;;;22.30;99.90;;;;;;5066343;28;20279;-80
2022/11/27 10:43:01;;;;;;;2.92;1.10;;;22.20;99.90;;;;;;5060373;28;20196;-80
2022/11/27 10:45:44;;;;;;;2.55;0.90;;;22.20;99.90;;;;;;5066875;28;20204;-79
2022/11/27 10:48:15;;;;;;;4.20;1.30;;;22.20;99.90;;;;;;5060655;28;20204;-78
2022/11/27 10:50:48;;;;;;;3.15;1.30;;;22.10;99.90;;;;;;5065638;28;20200;-80
2022/11/27 10:53:28;;;;;;;2.13;1.10;;;22.20;99.90;;;;;;5075224;28;20712;-79
2022/11/27 10:56:20;;;;;;;2.33;1.00;;;22.10;99.90;;;;;;5075042;28;20227;-79
2022/11/27 10:58:57;;;;;;;2.55;0.90;;;22.20;99.90;;;;;;5061142;28;20200;-79
2022/11/27 11:01:30;;;;;;;2.08;1.05;;;22.20;99.90;;;;;;5057800;28;20188;-79
2022/11/27 11:04:09;;;;;;;3.88;1.05;;;22.30;99.90;;;;;;5054998;28;20197;-80
2022/11/27 11:06:45;;;;;;;1.92;1.00;;;22.30;99.90;;;;;;5060505;28;20196;-79
2022/11/27 11:09:22;;;;;;;2.00;1.10;;;22.30;99.90;;;;;;5056323;28;20275;-79
2022/11/27 11:11:55;;;;;;;5.15;1.15;;;22.30;99.90;;;;;;5074886;28;20295;-79
2022/11/27 11:14:28;;;;;;;1.80;1.08;;;22.30;99.90;;;;;;5054747;28;20225;-81
2022/11/27 11:17:02;;;;;;;3.30;1.23;;;22.30;99.90;;;;;;5055678;28;20200;-80
2022/11/27 11:19:41;;;;;;;4.43;1.20;;;22.20;99.90;;;;;;5079038;28;20200;-79
2022/11/27 11:22:22;;;;;;;2.78;1.20;;;22.20;99.90;;;;;;5083597;28;20225;-79
2022/11/27 11:24:56;;;;;;;4.45;1.00;;;22.10;99.90;;;;;;5079626;28;20234;-80
2022/11/27 11:27:32;;;;;;;10.70;1.45;;;22.00;99.90;;;;;;5077491;28;20681;-79
2022/11/27 11:30:05;;;;;;;3.15;1.20;;;22.00;99.90;;;;;;5072554;28;20192;-79
2022/11/27 11:32:37;;;;;;;2.72;1.13;;;21.90;99.90;;;;;;5072390;28;20212;-79
2022/11/27 11:35:12;;;;;;;4.18;1.00;;;21.90;99.90;;;;;;5072429;28;20228;-79
2022/11/27 11:37:48;;;;;;;2.63;1.27;;;21.80;99.90;;;;;;5072763;28;20241;-79
2022/11/27 11:40:26;;;;;;;1.42;0.90;;;21.70;99.90;;;;;;5069813;28;20656;-79
2022/11/27 11:43:01;;;;;;;3.72;1.20;;;21.70;99.90;;;;;;5052668;28;20207;-79
2022/11/27 11:45:33;;;;;;;1.92;1.15;;;21.70;99.90;;;;;;5052406;28;20690;-79
2022/11/27 11:48:18;;;;;;;2.45;1.10;;;21.80;99.90;;;;;;5065196;28;20192;-80
2022/11/27 11:50:54;;;;;;;2.00;1.02;;;21.80;99.90;;;;;;5072702;28;20554;-80
2022/11/27 11:53:34;;;;;;;2.08;1.00;;;21.90;99.90;;;;;;5070965;28;20568;-80
2022/11/27 11:56:18;;;;;;;6.13;1.42;;;21.90;99.90;;;;;;5054157;28;20232;-80
2022/11/27 11:58:59;;;;;;;1.83;1.27;;;21.80;99.90;;;;;;5067471;28;20660;-80
2022/11/27 12:01:52;;;;;;;4.53;1.58;;;21.80;99.90;;;;;;5074523;28;20196;-80
2022/11/27 12:04:45;;;;;;;4.22;1.80;;;21.80;99.90;;;;;;5072912;28;20200;-80
2022/11/27 12:07:29;;;;;;;3.95;1.45;;;21.80;99.90;;;;;;5073281;28;20204;-79
2022/11/27 12:10:06;;;;;;;1.55;0.73;;;21.80;99.90;;;;;;5072616;28;20562;-80
2022/11/27 12:12:51;;;;;;;2.83;1.00;;;21.60;99.90;;;;;;5076472;28;20214;-79
2022/11/27 12:15:33;;;;;;;1.98;1.05;;;21.50;99.90;;;;;;5068968;28;20227;-80
2022/11/27 12:18:11;;;;;;;2.67;1.00;;;21.40;99.90;;;;;;5053864;28;20203;-80
2022/11/27 12:20:58;;;;;;;4.30;1.02;;;21.30;99.90;;;;;;5061398;28;20196;-80
2022/11/27 12:23:55;;;;;;;2.20;0.98;;;21.30;99.90;;;;;;5072385;28;20578;-80
2022/11/27 12:26:37;;;;;;;4.72;1.70;;;21.30;99.90;;;;;;5069404;28;20608;-80
2022/11/27 12:29:32;;;;;;;10.43;2.35;;;21.30;99.90;;;;;;5061554;28;20694;-80
2022/11/27 12:32:22;;;;;;;10.15;2.92;;;21.30;99.90;;;;;;5062202;28;20666;-80
2022/11/27 12:35:05;;;;;;;17.73;3.60;;;21.20;99.90;;;;;;5053612;28;20228;-80
2022/11/27 12:37:48;;;;;;;17.85;3.55;;;21.20;99.90;;;;;;5058079;28;20226;-80
2022/11/27 12:40:31;;;;;;;19.73;4.20;;;21.10;99.90;;;;;;5073193;28;20206;-80
2022/11/27 12:43:13;;;;;;;18.80;4.50;;;21.10;99.90;;;;;;5070712;28;20283;-79
2022/11/27 12:45:48;;;;;;;16.00;4.20;;;21.10;99.90;;;;;;5067754;28;20215;-79
2022/11/27 12:48:25;;;;;;;22.40;4.82;;;21.10;99.90;;;;;;5062723;28;20204;-79
2022/11/27 12:50:59;;;;;;;21.10;4.35;;;21.00;99.90;;;;;;5066733;28;20239;-80
2022/11/27 12:53:36;;;;;;;22.38;4.40;;;20.90;99.90;;;;;;5068283;28;20203;-80
2022/11/27 12:56:15;;;;;;;18.80;4.32;;;21.00;99.90;;;;;;5071020;28;20246;-80
2022/11/27 12:58:50;;;;;;;23.02;4.65;;;21.00;99.90;;;;;;5058145;28;20212;-80
2022/11/27 13:01:27;;;;;;;19.35;4.22;;;20.90;99.90;;;;;;5052530;28;20192;-79
2022/11/27 13:04:12;;;;;;;19.02;4.10;;;20.90;99.90;;;;;;5065745;28;20666;-79
2022/11/27 13:06:55;;;;;;;15.38;3.40;;;20.90;99.90;;;;;;5052039;28;20200;-79
2022/11/27 13:09:35;;;;;;;21.50;4.30;;;20.90;99.90;;;;;;5061865;28;20241;-80
2022/11/27 13:12:06;;;;;;;23.65;4.30;;;20.80;99.90;;;;;;5071303;28;20197;-80
2022/11/27 13:14:40;;;;;;;19.63;3.70;;;20.90;99.90;;;;;;5063083;28;20238;-80
2022/11/27 13:17:16;;;;;;;19.25;3.70;;;20.90;99.90;;;;;;5058305;28;20734;-80
2022/11/27 13:19:51;;;;;;;14.90;3.75;;;20.80;99.90;;;;;;5072135;28;20192;-80
2022/11/27 13:22:29;;;;;;;16.15;3.63;;;20.80;99.90;;;;;;5064454;28;20210;-80